createdAt,value
2023-05-21T00:02:17.562Z,18.67
2023-05-21T00:04:48.806Z,18.66
2023-05-21T00:07:21.196Z,18.69
2023-05-21T00:09:53.368Z,18.68
2023-05-21T00:12:25.630Z,18.69
2023-05-21T00:14:58.134Z,18.64
2023-05-21T00:17:30.562Z,18.67
2023-05-21T00:20:07.242Z,18.65
2023-05-21T00:22:40.395Z,18.66
2023-05-21T00:25:13.838Z,18.61
2023-05-21T00:27:46.014Z,18.67
2023-05-21T00:30:18.333Z,18.64
2023-05-21T00:32:50.728Z,18.60
2023-05-21T00:35:22.990Z,18.61
2023-05-21T00:37:55.510Z,18.65
2023-05-21T00:40:27.739Z,18.62
2023-05-21T00:42:59.911Z,18.58
2023-05-21T00:45:32.360Z,18.57
2023-05-21T00:48:06.523Z,18.53
2023-05-21T00:50:39.841Z,18.53
2023-05-21T00:53:12.102Z,18.54
2023-05-21T00:55:44.391Z,18.51
2023-05-21T00:58:17.912Z,18.49
2023-05-21T01:00:50.644Z,18.49
2023-05-21T01:03:23.630Z,18.48
2023-05-21T01:06:00.039Z,18.38
2023-05-21T01:08:34.874Z,18.46
2023-05-21T01:11:08.359Z,18.45
2023-05-21T01:13:42.513Z,18.43
2023-05-21T01:16:15.394Z,18.43
2023-05-21T01:18:47.979Z,18.41
2023-05-21T01:21:21.782Z,18.37
2023-05-21T01:23:54.017Z,18.38
2023-05-21T01:26:26.339Z,18.32
2023-05-21T01:28:59.045Z,18.36
2023-05-21T01:31:35.544Z,18.35
2023-05-21T01:34:12.239Z,18.30
2023-05-21T01:36:55.964Z,18.27
2023-05-21T01:39:33.193Z,18.24
2023-05-21T01:42:07.901Z,18.23
2023-05-21T01:44:42.149Z,18.22
2023-05-21T01:47:15.214Z,18.13
2023-05-21T01:49:48.412Z,18.21
2023-05-21T01:52:21.434Z,18.21
2023-05-21T01:54:54.435Z,18.17
2023-05-21T01:57:26.832Z,18.16
2023-05-21T02:00:01.226Z,18.14
2023-05-21T02:02:33.538Z,18.08
2023-05-21T02:05:06.583Z,18.09
2023-05-21T02:07:40.468Z,18.04
2023-05-21T02:10:14.548Z,18.05
2023-05-21T02:12:47.253Z,18.02
2023-05-21T02:15:19.574Z,17.99
2023-05-21T02:17:53.172Z,17.90
2023-05-21T02:20:25.974Z,17.98
2023-05-21T02:22:59.256Z,17.91
2023-05-21T02:25:31.541Z,17.90
2023-05-21T02:28:03.908Z,17.90
2023-05-21T02:30:36.643Z,17.88
2023-05-21T02:33:09.858Z,17.84
2023-05-21T02:35:42.328Z,17.74
2023-05-21T02:38:14.770Z,17.83
2023-05-21T02:40:47.397Z,17.83
2023-05-21T02:43:19.898Z,17.81
2023-05-21T02:45:52.708Z,17.78
2023-05-21T02:48:25.477Z,17.75
2023-05-21T02:50:57.948Z,17.73
2023-05-21T02:53:31.196Z,17.77
2023-05-21T02:56:03.869Z,17.78
2023-05-21T02:58:36.374Z,17.74
2023-05-21T03:01:08.916Z,17.74
2023-05-21T03:03:41.527Z,17.74
2023-05-21T03:06:14.358Z,17.74
2023-05-21T03:08:46.798Z,17.76
2023-05-21T03:11:19.721Z,17.76
2023-05-21T03:13:52.334Z,17.76
2023-05-21T03:16:24.584Z,17.75
2023-05-21T03:18:57.078Z,17.76
2023-05-21T03:21:30.335Z,17.65
2023-05-21T03:24:03.346Z,17.72
2023-05-21T03:26:35.892Z,17.73
2023-05-21T03:29:08.261Z,17.75
2023-05-21T03:31:41.090Z,17.75
2023-05-21T03:34:14.178Z,17.75
2023-05-21T03:36:46.378Z,17.72
2023-05-21T03:39:19.165Z,17.72
2023-05-21T03:41:51.381Z,17.72
2023-05-21T03:44:33.052Z,17.74
2023-05-21T03:47:23.550Z,17.77
2023-05-21T03:49:56.469Z,17.80
2023-05-21T03:52:28.941Z,17.79
2023-05-21T03:55:02.658Z,17.81
2023-05-21T03:57:35.149Z,17.80
2023-05-21T04:00:10.103Z,17.82
2023-05-21T04:02:48.350Z,17.82
2023-05-21T04:05:22.049Z,17.86
2023-05-21T04:07:54.296Z,17.83
2023-05-21T04:10:27.089Z,17.84
2023-05-21T04:12:59.858Z,17.86
2023-05-21T04:15:32.621Z,17.92
2023-05-21T04:18:05.205Z,17.91
2023-05-21T04:20:37.801Z,17.87
2023-05-21T04:23:10.643Z,17.99
2023-05-21T04:25:43.124Z,18.04
2023-05-21T04:28:20.461Z,18.05
2023-05-21T04:30:53.120Z,18.06
2023-05-21T04:33:25.810Z,18.11
2023-05-21T04:35:59.096Z,18.15
2023-05-21T04:38:31.482Z,18.17
2023-05-21T04:41:04.345Z,18.21
2023-05-21T04:43:36.860Z,18.22
2023-05-21T04:46:09.304Z,18.22
2023-05-21T04:48:42.345Z,18.26
2023-05-21T04:51:15.172Z,18.28
2023-05-21T04:53:48.209Z,18.29
2023-05-21T04:56:21.916Z,18.37
2023-05-21T04:58:54.284Z,18.41
2023-05-21T05:01:27.393Z,18.43
2023-05-21T05:04:00.033Z,18.47
2023-05-21T05:06:33.182Z,18.45
2023-05-21T05:09:05.688Z,18.44
2023-05-21T05:11:38.025Z,18.55
2023-05-21T05:14:10.341Z,18.56
2023-05-21T05:16:43.203Z,18.62
2023-05-21T05:19:15.632Z,18.65
2023-05-21T05:21:48.445Z,18.70
2023-05-21T05:24:21.347Z,18.75
2023-05-21T05:26:53.827Z,18.77
2023-05-21T05:29:27.102Z,18.87
2023-05-21T05:31:59.292Z,18.89
2023-05-21T05:34:32.451Z,18.90
2023-05-21T05:37:04.741Z,18.83
2023-05-21T05:39:37.989Z,18.97
2023-05-21T05:42:10.445Z,19.07
2023-05-21T05:44:43.278Z,19.12
2023-05-21T05:47:15.744Z,19.16
2023-05-21T05:49:48.153Z,19.18
2023-05-21T05:52:20.592Z,19.25
2023-05-21T05:54:52.776Z,19.32
2023-05-21T05:57:25.554Z,19.32
2023-05-21T05:59:58.388Z,19.38
2023-05-21T06:02:31.022Z,19.43
2023-05-21T06:05:04.234Z,19.44
2023-05-21T06:07:37.188Z,19.59
2023-05-21T06:10:10.404Z,19.64
2023-05-21T06:12:42.502Z,19.64
2023-05-21T06:15:16.631Z,19.72
2023-05-21T06:17:49.037Z,19.74
2023-05-21T06:20:21.501Z,19.78
2023-05-21T06:22:54.132Z,19.85
2023-05-21T06:25:27.136Z,19.87
2023-05-21T06:27:59.720Z,19.95
2023-05-21T06:30:32.878Z,20.02
2023-05-21T06:33:05.235Z,20.08
2023-05-21T06:35:39.276Z,20.14
2023-05-21T06:38:12.828Z,20.18
2023-05-21T06:40:47.546Z,20.23
2023-05-21T06:43:24.298Z,20.28
2023-05-21T06:46:31.493Z,20.35
2023-05-21T06:49:07.047Z,20.43
2023-05-21T06:51:39.515Z,20.42
2023-05-21T06:54:11.685Z,20.56
2023-05-21T06:56:45.140Z,20.58
2023-05-21T06:59:20.328Z,20.62
2023-05-21T07:01:53.419Z,20.72
2023-05-21T07:04:26.155Z,20.78
2023-05-21T07:06:58.292Z,20.85
2023-05-21T07:09:30.834Z,20.87
2023-05-21T07:12:03.243Z,20.94
2023-05-21T07:14:35.586Z,21.04
2023-05-21T07:17:08.138Z,21.07
2023-05-21T07:19:41.187Z,21.12
2023-05-21T07:22:14.629Z,21.10
2023-05-21T07:24:47.403Z,21.19
2023-05-21T07:27:25.794Z,21.23
2023-05-21T07:29:59.818Z,21.30
2023-05-21T07:32:32.482Z,21.37
2023-05-21T07:35:05.434Z,21.44
2023-05-21T07:37:38.051Z,21.48
2023-05-21T07:40:12.524Z,21.52
2023-05-21T07:42:44.913Z,21.60
2023-05-21T07:45:17.400Z,21.65
2023-05-21T07:47:50.089Z,21.70
2023-05-21T07:50:22.638Z,21.77
2023-05-21T07:52:54.902Z,21.82
2023-05-21T07:55:27.297Z,21.89
2023-05-21T07:58:00.105Z,21.95
2023-05-21T08:00:47.609Z,21.89
2023-05-21T08:03:21.094Z,22.06
2023-05-21T08:05:55.057Z,22.16
2023-05-21T08:08:28.029Z,22.20
2023-05-21T08:11:01.987Z,22.24
2023-05-21T08:13:34.754Z,22.33
2023-05-21T08:16:08.793Z,22.37
2023-05-21T08:18:41.345Z,22.44
2023-05-21T08:21:13.735Z,22.44
2023-05-21T08:23:46.185Z,22.55
2023-05-21T08:26:18.471Z,22.60
2023-05-21T08:28:50.884Z,22.65
2023-05-21T08:31:23.802Z,22.70
2023-05-21T08:33:57.507Z,22.79
2023-05-21T08:36:43.254Z,22.88
2023-05-21T08:39:26.946Z,22.95
2023-05-21T08:42:06.028Z,23.04
2023-05-21T08:44:42.197Z,23.12
2023-05-21T08:47:17.742Z,23.18
2023-05-21T08:49:51.429Z,23.27
2023-05-21T08:52:23.886Z,23.36
2023-05-21T08:54:57.860Z,23.42
2023-05-21T08:57:31.723Z,23.45
2023-05-21T09:00:07.405Z,23.52
2023-05-21T09:02:43.798Z,23.62
2023-05-21T09:05:17.689Z,23.68
2023-05-21T09:07:56.903Z,23.72
2023-05-21T09:11:07.875Z,23.82
2023-05-21T09:13:44.882Z,23.93
2023-05-21T09:16:22.501Z,24.01
2023-05-21T09:18:55.428Z,24.08
2023-05-21T09:21:33.291Z,24.16
2023-05-21T09:24:12.358Z,24.15
2023-05-21T09:26:46.462Z,24.31
2023-05-21T09:29:18.864Z,24.36
2023-05-21T09:31:51.420Z,24.44
2023-05-21T09:34:26.237Z,24.42
2023-05-21T09:37:01.657Z,24.50
2023-05-21T09:39:34.319Z,24.58
2023-05-21T09:42:08.572Z,24.64
2023-05-21T09:44:41.361Z,24.70
2023-05-21T09:47:13.721Z,24.73
2023-05-21T09:49:46.858Z,24.80
2023-05-21T09:52:26.450Z,24.83
2023-05-21T09:54:58.732Z,24.94
2023-05-21T09:57:32.015Z,25.04
2023-05-21T10:00:06.583Z,25.17
2023-05-21T10:02:48.118Z,25.24
2023-05-21T10:05:21.575Z,25.34
2023-05-21T10:07:57.249Z,25.41
2023-05-21T10:10:31.980Z,25.49
2023-05-21T10:13:07.967Z,25.57
2023-05-21T10:15:43.794Z,25.59
2023-05-21T10:18:16.853Z,25.70
2023-05-21T10:20:50.333Z,25.74
2023-05-21T10:23:24.657Z,25.90
2023-05-21T10:25:59.461Z,25.95
2023-05-21T10:28:33.721Z,26.02
2023-05-21T10:31:06.681Z,26.10
2023-05-21T10:33:40.166Z,26.18
2023-05-21T10:36:12.855Z,26.24
2023-05-21T10:38:46.654Z,26.31
2023-05-21T10:41:21.966Z,26.40
2023-05-21T10:44:03.932Z,26.48
2023-05-21T10:46:55.528Z,26.57
2023-05-21T10:49:47.112Z,26.62
2023-05-21T10:52:32.332Z,26.74
2023-05-21T10:55:31.820Z,26.78
2023-05-21T10:58:30.026Z,26.84
2023-05-21T11:01:03.611Z,26.92
2023-05-21T11:03:37.753Z,27.00
2023-05-21T11:06:11.716Z,27.03
2023-05-21T11:08:55.344Z,27.04
2023-05-21T11:11:48.618Z,27.19
2023-05-21T11:14:32.928Z,27.20
2023-05-21T11:17:11.189Z,27.19
2023-05-21T11:19:44.528Z,27.17
2023-05-21T11:22:27.021Z,27.27
2023-05-21T11:25:04.240Z,27.34
2023-05-21T11:27:37.647Z,27.43
2023-05-21T11:30:11.719Z,27.49
2023-05-21T11:33:22.241Z,27.55
2023-05-21T11:36:01.450Z,27.52
2023-05-21T11:38:34.552Z,27.60
2023-05-21T11:41:10.352Z,27.63
2023-05-21T11:43:44.832Z,27.66
2023-05-21T11:46:17.656Z,27.63
2023-05-21T11:48:52.035Z,27.68
2023-05-21T11:51:24.908Z,27.69
2023-05-21T11:53:57.347Z,27.67
2023-05-21T11:56:31.992Z,27.74
2023-05-21T11:59:06.484Z,27.73
2023-05-21T12:01:39.398Z,27.74
2023-05-21T12:04:12.662Z,27.73
2023-05-21T12:06:48.478Z,27.76
2023-05-21T12:09:21.369Z,27.82
2023-05-21T12:11:54.333Z,27.85
2023-05-21T12:14:26.668Z,27.81
2023-05-21T12:16:59.508Z,27.80
2023-05-21T12:19:33.409Z,27.74
2023-05-21T12:22:07.581Z,27.58
2023-05-21T12:24:40.535Z,27.55
2023-05-21T12:27:16.753Z,27.47
2023-05-21T12:29:52.821Z,27.42
2023-05-21T12:32:28.682Z,27.47
2023-05-21T12:35:01.279Z,27.46
2023-05-21T12:37:35.761Z,27.42
2023-05-21T12:40:12.025Z,27.34
2023-05-21T12:42:46.114Z,27.37
2023-05-21T12:45:22.737Z,27.38
2023-05-21T12:47:56.599Z,27.38
2023-05-21T12:50:29.285Z,27.37
2023-05-21T12:53:02.277Z,27.34
2023-05-21T12:55:36.795Z,27.19
2023-05-21T12:58:09.533Z,27.13
2023-05-21T13:00:45.553Z,27.07
2023-05-21T13:03:17.990Z,27.04
2023-05-21T13:05:59.121Z,27.11
2023-05-21T13:08:31.608Z,27.24
2023-05-21T13:11:04.430Z,27.38
2023-05-21T13:13:37.112Z,27.51
2023-05-21T13:16:10.178Z,27.64
2023-05-21T13:18:42.608Z,27.84
2023-05-21T13:21:14.889Z,27.97
2023-05-21T13:23:47.189Z,28.14
2023-05-21T13:26:19.541Z,28.31
2023-05-21T13:28:51.726Z,28.27
2023-05-21T13:31:24.280Z,28.11
2023-05-21T13:33:56.603Z,28.07
2023-05-21T13:36:28.865Z,28.01
2023-05-21T13:39:01.202Z,27.94
2023-05-21T13:41:34.091Z,27.85
2023-05-21T13:44:07.176Z,27.95
2023-05-21T13:46:39.576Z,27.95
2023-05-21T13:49:11.904Z,28.06
2023-05-21T13:51:44.345Z,28.08
2023-05-21T13:54:16.522Z,27.99
2023-05-21T13:56:48.916Z,27.97
2023-05-21T13:59:21.379Z,27.85
2023-05-21T14:01:53.780Z,27.75
2023-05-21T14:04:26.271Z,27.74
2023-05-21T14:06:58.593Z,27.64
2023-05-21T14:09:30.996Z,27.50
2023-05-21T14:12:06.418Z,27.41
2023-05-21T14:14:39.127Z,27.34
2023-05-21T14:17:11.316Z,27.14
2023-05-21T14:19:43.870Z,27.09
2023-05-21T14:22:16.040Z,26.96
2023-05-21T14:24:48.086Z,26.91
2023-05-21T14:27:20.308Z,26.81
2023-05-21T14:29:52.661Z,26.73
2023-05-21T14:32:25.057Z,26.44
2023-05-21T14:34:59.493Z,26.57
2023-05-21T14:37:31.568Z,26.55
2023-05-21T14:40:05.569Z,26.49
2023-05-21T14:42:38.295Z,26.43
2023-05-21T14:45:19.019Z,26.39
2023-05-21T14:47:51.821Z,26.33
2023-05-21T14:50:24.142Z,26.28
2023-05-21T14:52:56.847Z,26.24
2023-05-21T14:55:29.743Z,26.22
2023-05-21T14:58:02.116Z,26.18
2023-05-21T15:00:35.402Z,26.13
2023-05-21T15:03:07.992Z,26.14
2023-05-21T15:05:40.400Z,26.20
2023-05-21T15:08:12.717Z,26.14
2023-05-21T15:10:44.957Z,26.28
2023-05-21T15:13:17.195Z,26.40
2023-05-21T15:15:50.303Z,26.71
2023-05-21T15:18:24.753Z,26.84
2023-05-21T15:20:57.137Z,26.91
2023-05-21T15:23:29.309Z,27.13
2023-05-21T15:26:01.609Z,27.33
2023-05-21T15:28:33.826Z,27.39
2023-05-21T15:31:06.547Z,27.44
2023-05-21T15:33:38.881Z,27.43
2023-05-21T15:36:11.909Z,27.62
2023-05-21T15:38:44.349Z,27.67
2023-05-21T15:41:17.025Z,27.65
2023-05-21T15:43:50.053Z,27.78
2023-05-21T15:46:22.731Z,27.67
2023-05-21T15:48:54.838Z,27.44
2023-05-21T15:51:27.232Z,27.27
2023-05-21T15:53:59.554Z,27.11
2023-05-21T15:56:31.904Z,26.94
2023-05-21T15:59:04.072Z,26.68
2023-05-21T16:01:36.503Z,26.59
2023-05-21T16:04:09.287Z,26.44
2023-05-21T16:06:41.790Z,26.30
2023-05-21T16:09:14.120Z,26.15
2023-05-21T16:11:46.294Z,26.03
2023-05-21T16:14:19.354Z,25.92
2023-05-21T16:16:51.964Z,25.82
2023-05-21T16:19:24.320Z,25.73
2023-05-21T16:21:57.163Z,25.55
2023-05-21T16:24:29.333Z,25.52
2023-05-21T16:27:01.697Z,25.44
2023-05-21T16:29:34.028Z,25.36
2023-05-21T16:32:07.154Z,25.30
2023-05-21T16:34:39.560Z,25.21
2023-05-21T16:37:12.344Z,25.17
2023-05-21T16:39:44.371Z,25.11
2023-05-21T16:42:16.484Z,25.05
2023-05-21T16:44:48.781Z,24.99
2023-05-21T16:47:21.587Z,24.93
2023-05-21T16:49:55.878Z,24.89
2023-05-21T16:52:28.944Z,24.81
2023-05-21T16:55:01.294Z,24.84
2023-05-21T16:57:33.699Z,24.81
2023-05-21T17:00:07.771Z,24.78
2023-05-21T17:02:41.270Z,24.77
2023-05-21T17:05:13.657Z,24.76
2023-05-21T17:07:46.320Z,24.72
2023-05-21T17:10:19.920Z,24.81
2023-05-21T17:12:52.710Z,24.82
2023-05-21T17:15:25.854Z,24.87
2023-05-21T17:17:58.405Z,24.88
2023-05-21T17:20:30.835Z,24.92
2023-05-21T17:23:03.378Z,24.93
2023-05-21T17:25:36.151Z,24.96
2023-05-21T17:28:08.524Z,24.94
2023-05-21T17:30:40.846Z,24.92
2023-05-21T17:33:13.279Z,24.92
2023-05-21T17:35:45.945Z,24.94
2023-05-21T17:38:18.290Z,24.98
2023-05-21T17:40:50.789Z,25.00
2023-05-21T17:43:23.509Z,25.03
2023-05-21T17:45:55.674Z,25.08
2023-05-21T17:48:28.121Z,25.14
2023-05-21T17:51:00.230Z,25.16
2023-05-21T17:53:32.448Z,25.21
2023-05-21T17:56:04.955Z,25.26
2023-05-21T17:58:37.657Z,25.27
2023-05-21T18:01:10.018Z,25.20
2023-05-21T18:03:42.629Z,25.21
2023-05-21T18:06:15.039Z,25.15
2023-05-21T18:08:47.382Z,25.10
2023-05-21T18:11:19.651Z,25.04
2023-05-21T18:13:51.943Z,24.96
2023-05-21T18:16:24.656Z,24.88
2023-05-21T18:18:57.325Z,24.80
2023-05-21T18:21:29.574Z,24.64
2023-05-21T18:24:02.890Z,24.61
2023-05-21T18:26:35.763Z,24.50
2023-05-21T18:29:10.892Z,24.37
2023-05-21T18:31:44.530Z,24.25
2023-05-21T18:34:17.540Z,24.11
2023-05-21T18:36:49.838Z,23.97
2023-05-21T18:39:24.865Z,23.77
2023-05-21T18:44:32.922Z,23.55
2023-05-21T18:47:06.138Z,23.42
2023-05-21T18:49:38.814Z,23.31
2023-05-21T18:52:11.161Z,23.19
2023-05-21T18:54:43.375Z,23.07
2023-05-21T18:57:15.898Z,22.99
2023-05-21T18:59:48.426Z,22.87
2023-05-21T19:02:20.799Z,22.76
2023-05-21T19:04:53.247Z,22.67
2023-05-21T19:07:25.463Z,22.57
2023-05-21T19:09:57.842Z,22.47
2023-05-21T19:12:31.481Z,22.36
2023-05-21T19:15:03.727Z,22.27
2023-05-21T19:17:36.588Z,22.19
2023-05-21T19:20:11.539Z,22.09
2023-05-21T19:22:43.937Z,22.01
2023-05-21T19:25:17.436Z,21.94
2023-05-21T19:27:49.870Z,21.92
2023-05-21T19:30:23.158Z,21.87
2023-05-21T19:32:55.589Z,21.88
2023-05-21T19:35:28.031Z,21.84
2023-05-21T19:38:03.296Z,21.82
2023-05-21T19:40:37.944Z,21.79
2023-05-21T19:43:10.396Z,21.78
2023-05-21T19:45:43.181Z,21.65
2023-05-21T19:48:16.146Z,21.59
2023-05-21T19:50:49.033Z,21.64
2023-05-21T19:53:21.381Z,21.59
2023-05-21T19:55:53.614Z,21.41
2023-05-21T19:58:29.552Z,21.50
2023-05-21T20:01:03.644Z,21.46
2023-05-21T20:03:37.182Z,21.46
2023-05-21T20:06:09.616Z,21.44
2023-05-21T20:08:41.940Z,21.41
2023-05-21T20:11:14.300Z,21.36
2023-05-21T20:13:50.221Z,21.32
2023-05-21T20:16:23.266Z,21.28
2023-05-21T20:18:58.400Z,21.25
2023-05-21T20:21:32.743Z,21.22
2023-05-21T20:24:05.118Z,21.19
2023-05-21T20:26:37.642Z,21.17
2023-05-21T20:29:10.075Z,21.02
2023-05-21T20:31:42.667Z,21.05
2023-05-21T20:34:17.753Z,20.99
2023-05-21T20:36:50.232Z,20.93
2023-05-21T20:39:23.049Z,20.89
2023-05-21T20:41:55.362Z,20.86
2023-05-21T20:44:28.878Z,20.82
2023-05-21T20:47:04.800Z,20.80
2023-05-21T20:49:38.457Z,20.80
2023-05-21T20:52:11.145Z,20.75
2023-05-21T20:54:46.597Z,20.71
2023-05-21T20:57:19.322Z,20.68
2023-05-21T20:59:52.426Z,20.57
2023-05-21T21:02:25.580Z,20.62
2023-05-21T21:04:58.066Z,20.54
2023-05-21T21:07:33.545Z,20.58
2023-05-21T21:10:06.883Z,20.55
2023-05-21T21:12:39.556Z,20.50
2023-05-21T21:15:12.893Z,20.48
2023-05-21T21:17:45.669Z,20.44
2023-05-21T21:20:19.428Z,20.40
2023-05-21T21:22:52.724Z,20.35
2023-05-21T21:25:25.231Z,20.30
2023-05-21T21:27:57.668Z,20.28
2023-05-21T21:30:29.936Z,20.23
2023-05-21T21:33:02.847Z,20.18
2023-05-21T21:35:35.187Z,20.15
2023-05-21T21:38:07.429Z,20.10
2023-05-21T21:40:39.580Z,20.08
2023-05-21T21:43:11.945Z,20.06
2023-05-21T21:45:44.368Z,20.04
2023-05-21T21:48:16.885Z,20.03
2023-05-21T21:50:49.456Z,19.93
2023-05-21T21:53:21.883Z,20.00
2023-05-21T21:55:55.162Z,19.98
2023-05-21T21:58:27.568Z,19.91
2023-05-21T22:01:00.219Z,19.99
2023-05-21T22:03:35.137Z,19.98
2023-05-21T22:06:05.854Z,19.98
2023-05-21T22:08:38.417Z,19.97
2023-05-21T22:11:11.651Z,19.94
2023-05-21T22:13:44.347Z,19.86
2023-05-21T22:16:16.978Z,19.93
2023-05-21T22:18:50.759Z,19.83
2023-05-21T22:21:27.970Z,19.81
2023-05-21T22:24:00.998Z,19.87
2023-05-21T22:26:33.418Z,19.85
2023-05-21T22:29:05.668Z,19.82
2023-05-21T22:31:38.844Z,19.83
2023-05-21T22:34:11.161Z,19.78
2023-05-21T22:36:44.764Z,19.76
2023-05-21T22:39:17.031Z,19.75
2023-05-21T22:41:49.326Z,19.71
2023-05-21T22:44:21.825Z,19.66
2023-05-21T22:46:54.596Z,19.61
2023-05-21T22:49:27.008Z,19.56
2023-05-21T22:52:05.057Z,19.52
2023-05-21T22:54:37.766Z,19.41
2023-05-21T22:57:09.990Z,19.44
2023-05-21T22:59:42.418Z,19.38
2023-05-21T23:02:16.520Z,19.34
2023-05-21T23:04:49.429Z,19.27
2023-05-21T23:07:21.775Z,19.23
2023-05-21T23:09:53.970Z,19.20
2023-05-21T23:12:26.372Z,19.16
2023-05-21T23:14:58.606Z,19.12
2023-05-21T23:17:30.865Z,19.08
2023-05-21T23:20:03.230Z,19.04
2023-05-21T23:22:35.565Z,18.97
2023-05-21T23:25:09.946Z,18.94
2023-05-21T23:27:42.318Z,18.89
2023-05-21T23:30:15.000Z,18.85
2023-05-21T23:32:47.261Z,18.81
2023-05-21T23:35:19.786Z,18.70
2023-05-21T23:37:51.772Z,18.74
2023-05-21T23:40:24.012Z,18.71
2023-05-21T23:42:56.130Z,18.67
2023-05-21T23:45:28.538Z,18.55
2023-05-21T23:48:00.816Z,18.59
2023-05-21T23:50:33.206Z,18.57
2023-05-21T23:53:05.623Z,18.54
2023-05-21T23:55:38.308Z,18.49
2023-05-21T23:58:10.494Z,18.46
